Terminal Aerodrome Forecast
Issued by NWS

Home | Current Version | Previous Version | Text Only | Print | Product List | Glossary On
Versions: 1 2 3 4 5 6 7 8 9 10 11 12
000
FTUS42 TJSJ 032320
TAFISX
TAF
TISX 032320Z 0400/0424 09015G23KT P6SM SCT026
     FM041300 09021KT P6SM SCT018 SCT250
     FM042300 06013KT P6SM SCT018=

USA.gov is the U.S. government's official web portal to all federal, state and local government web resources and services.